createdAt,value
2022-09-09T00:00:42.625Z,100.00
2022-09-09T00:03:17.896Z,100.00
2022-09-09T00:05:56.661Z,100.00
2022-09-09T00:08:37.097Z,100.00
2022-09-09T00:11:07.670Z,100.00
2022-09-09T00:13:41.358Z,100.00
2022-09-09T00:16:17.261Z,100.00
2022-09-09T00:18:54.099Z,100.00
2022-09-09T00:21:40.706Z,100.00
2022-09-09T00:24:19.216Z,100.00
2022-09-09T00:27:16.499Z,100.00
2022-09-09T00:29:58.440Z,100.00
2022-09-09T00:32:31.396Z,100.00
2022-09-09T00:35:04.252Z,100.00
2022-09-09T00:37:41.843Z,100.00
2022-09-09T00:40:24.175Z,100.00
2022-09-09T00:43:06.133Z,100.00
2022-09-09T00:45:58.670Z,100.00
2022-09-09T00:48:36.939Z,100.00
2022-09-09T00:51:12.281Z,100.00
2022-09-09T00:53:59.402Z,100.00
2022-09-09T00:56:38.215Z,100.00
2022-09-09T00:59:19.263Z,100.00
2022-09-09T01:01:47.281Z,100.00
2022-09-09T01:04:21.413Z,100.00
2022-09-09T01:07:00.110Z,100.00
2022-09-09T01:09:50.298Z,100.00
2022-09-09T01:12:44.886Z,100.00
2022-09-09T01:15:19.631Z,100.00
2022-09-09T01:17:59.032Z,100.00
2022-09-09T01:20:33.391Z,100.00
2022-09-09T01:23:28.195Z,100.00
2022-09-09T01:26:18.235Z,100.00
2022-09-09T01:28:49.890Z,100.00
2022-09-09T01:31:31.623Z,100.00
2022-09-09T01:33:59.537Z,100.00
2022-09-09T01:36:34.573Z,100.00
2022-09-09T01:39:02.331Z,100.00
2022-09-09T01:41:39.367Z,100.00
2022-09-09T01:44:23.531Z,100.00
2022-09-09T01:46:51.427Z,100.00
2022-09-09T01:50:23.080Z,100.00
2022-09-09T01:53:13.852Z,100.00
2022-09-09T01:56:18.237Z,100.00
2022-09-09T01:59:43.648Z,100.00
2022-09-09T02:02:37.696Z,100.00
2022-09-09T02:05:31.023Z,100.00
2022-09-09T02:08:07.585Z,100.00
2022-09-09T02:10:57.260Z,100.00
2022-09-09T02:13:25.537Z,100.00
2022-09-09T02:16:05.862Z,100.00
2022-09-09T02:19:25.753Z,100.00
2022-09-09T02:21:56.472Z,100.00
2022-09-09T02:24:25.818Z,100.00
2022-09-09T02:26:56.732Z,100.00
2022-09-09T02:29:28.577Z,100.00
2022-09-09T02:32:07.088Z,100.00
2022-09-09T02:34:39.454Z,100.00
2022-09-09T02:37:36.004Z,100.00
2022-09-09T02:40:04.723Z,100.00
2022-09-09T02:42:46.579Z,100.00
2022-09-09T02:45:26.139Z,100.00
2022-09-09T02:48:39.312Z,100.00
2022-09-09T02:51:21.222Z,100.00
2022-09-09T02:54:29.926Z,100.00
2022-09-09T03:00:48.903Z,100.00
2022-09-09T03:03:18.871Z,100.00
2022-09-09T03:06:08.238Z,100.00
2022-09-09T03:08:39.756Z,100.00
2022-09-09T03:11:55.618Z,100.00
2022-09-09T03:14:26.139Z,100.00
2022-09-09T03:16:55.156Z,100.00
2022-09-09T03:19:50.626Z,100.00
2022-09-09T03:22:46.131Z,100.00
2022-09-09T03:25:27.540Z,100.00
2022-09-09T03:28:16.219Z,100.00
2022-09-09T03:30:44.114Z,100.00
2022-09-09T03:33:18.332Z,100.00
2022-09-09T03:35:49.687Z,100.00
2022-09-09T03:38:24.600Z,100.00
2022-09-09T03:40:56.127Z,100.00
2022-09-09T03:43:24.165Z,100.00
2022-09-09T03:45:52.487Z,100.00
2022-09-09T03:48:25.568Z,100.00
2022-09-09T03:50:56.918Z,100.00
2022-09-09T03:53:46.836Z,100.00
2022-09-09T03:56:15.557Z,100.00
2022-09-09T03:58:49.629Z,100.00
2022-09-09T04:01:19.303Z,100.00
2022-09-09T04:03:47.539Z,100.00
2022-09-09T04:06:17.892Z,100.00
2022-09-09T04:08:50.710Z,100.00
2022-09-09T04:11:18.924Z,100.00
2022-09-09T04:13:46.612Z,100.00
2022-09-09T04:16:17.694Z,100.00
2022-09-09T04:18:45.706Z,100.00
2022-09-09T04:21:14.194Z,100.00
2022-09-09T04:23:52.530Z,100.00
2022-09-09T04:26:23.540Z,100.00
2022-09-09T04:28:51.976Z,100.00
2022-09-09T04:31:25.406Z,100.00
2022-09-09T04:33:59.609Z,100.00
2022-09-09T04:36:30.975Z,100.00
2022-09-09T04:39:08.705Z,100.00
2022-09-09T04:42:16.940Z,100.00
2022-09-09T04:45:58.069Z,100.00
2022-09-09T04:48:36.235Z,100.00
2022-09-09T04:51:05.959Z,100.00
2022-09-09T04:53:35.817Z,100.00
2022-09-09T04:59:43.555Z,100.00
2022-09-09T05:02:11.279Z,100.00
2022-09-09T05:04:38.965Z,100.00
2022-09-09T05:07:07.638Z,100.00
2022-09-09T05:09:35.685Z,100.00
2022-09-09T05:12:07.155Z,100.00
2022-09-09T05:14:37.256Z,100.00
2022-09-09T05:17:09.858Z,100.00
2022-09-09T05:19:53.519Z,100.00
2022-09-09T05:22:22.352Z,100.00
2022-09-09T05:24:52.430Z,100.00
2022-09-09T05:27:21.679Z,100.00
2022-09-09T05:29:50.568Z,100.00
2022-09-09T05:32:18.399Z,100.00
2022-09-09T05:34:46.136Z,100.00
2022-09-09T05:37:13.810Z,100.00
2022-09-09T05:39:41.793Z,100.00
2022-09-09T05:42:09.734Z,100.00
2022-09-09T05:44:39.261Z,100.00
2022-09-09T05:47:08.972Z,100.00
2022-09-09T05:49:39.269Z,100.00
2022-09-09T05:52:07.599Z,100.00
2022-09-09T05:54:35.316Z,100.00
2022-09-09T05:57:02.963Z,100.00
2022-09-09T05:59:30.728Z,100.00
2022-09-09T06:02:00.177Z,100.00
2022-09-09T06:04:28.002Z,100.00
2022-09-09T06:06:55.720Z,100.00
2022-09-09T06:09:32.479Z,100.00
2022-09-09T06:12:00.187Z,100.00
2022-09-09T06:14:28.257Z,100.00
2022-09-09T06:16:56.165Z,100.00
2022-09-09T06:19:27.769Z,98.72
2022-09-09T06:21:55.804Z,100.00
2022-09-09T06:24:23.432Z,100.00
2022-09-09T06:26:53.030Z,96.14
2022-09-09T06:29:20.836Z,90.98
2022-09-09T06:31:48.674Z,91.55
2022-09-09T06:34:16.530Z,88.04
2022-09-09T06:36:47.155Z,84.88
2022-09-09T06:39:16.376Z,86.01
2022-09-09T06:41:44.584Z,87.11
2022-09-09T06:44:13.642Z,85.82
2022-09-09T06:46:41.744Z,87.98
2022-09-09T06:49:10.056Z,88.01
2022-09-09T06:51:43.854Z,86.93
2022-09-09T06:54:14.020Z,86.08
2022-09-09T06:56:44.278Z,89.74
2022-09-09T06:59:13.413Z,87.58
2022-09-09T07:01:42.778Z,86.33
2022-09-09T07:04:11.925Z,84.82
2022-09-09T07:06:41.789Z,86.48
2022-09-09T07:09:11.907Z,90.26
2022-09-09T07:11:43.354Z,89.42
2022-09-09T07:14:13.815Z,89.78
2022-09-09T07:16:41.662Z,93.54
2022-09-09T07:19:10.420Z,92.55
2022-09-09T07:21:38.140Z,93.51
2022-09-09T07:24:08.313Z,92.39
2022-09-09T07:26:39.354Z,91.81
2022-09-09T07:29:20.605Z,94.81
2022-09-09T07:31:49.357Z,90.27
2022-09-09T07:34:17.369Z,88.53
2022-09-09T07:36:45.182Z,88.38
2022-09-09T07:39:15.364Z,89.83
2022-09-09T07:41:44.465Z,91.02
2022-09-09T07:44:18.646Z,92.29
2022-09-09T07:46:47.154Z,92.68
2022-09-09T07:49:15.623Z,95.20
2022-09-09T07:51:47.888Z,97.09
2022-09-09T07:54:20.943Z,98.65
2022-09-09T07:56:50.328Z,99.96
2022-09-09T08:02:16.848Z,96.81
2022-09-09T08:04:44.601Z,95.73
2022-09-09T08:07:13.062Z,96.37
2022-09-09T08:09:45.436Z,95.51
2022-09-09T08:12:22.524Z,96.36
2022-09-09T08:15:23.797Z,97.23
2022-09-09T08:17:51.460Z,98.11
2022-09-09T08:20:19.241Z,99.96
2022-09-09T08:22:47.094Z,92.96
2022-09-09T08:25:14.856Z,87.10
2022-09-09T08:27:43.075Z,84.70
2022-09-09T08:30:14.023Z,84.18
2022-09-09T08:32:44.856Z,76.78
2022-09-09T08:35:17.194Z,72.38
2022-09-09T08:37:44.979Z,73.59
2022-09-09T08:40:23.670Z,73.29
2022-09-09T08:42:54.854Z,77.06
2022-09-09T08:45:37.567Z,79.38
2022-09-09T08:48:29.156Z,83.96
2022-09-09T08:51:02.959Z,86.52
2022-09-09T08:53:40.592Z,87.71
2022-09-09T08:56:16.296Z,83.24
2022-09-09T08:58:51.538Z,86.32
2022-09-09T09:01:45.431Z,79.98
2022-09-09T09:07:41.224Z,79.80
2022-09-09T09:11:10.538Z,80.82
2022-09-09T09:13:47.238Z,81.68
2022-09-09T09:16:28.181Z,74.25
2022-09-09T09:19:15.310Z,75.99
2022-09-09T09:21:45.879Z,74.16
2022-09-09T09:24:34.244Z,74.84
2022-09-09T09:30:29.941Z,78.84
2022-09-09T09:33:02.358Z,78.00
2022-09-09T09:35:44.843Z,76.95
2022-09-09T09:41:40.751Z,68.43
2022-09-09T09:44:26.224Z,70.14
2022-09-09T09:47:04.278Z,73.01
2022-09-09T09:49:37.314Z,70.78
2022-09-09T09:52:40.688Z,69.55
2022-09-09T09:59:18.046Z,64.36
2022-09-09T10:02:17.168Z,59.17
2022-09-09T10:04:46.414Z,52.11
2022-09-09T10:07:41.988Z,52.93
2022-09-09T10:10:20.139Z,54.27
2022-09-09T10:13:00.750Z,54.50
2022-09-09T10:15:44.593Z,54.32
2022-09-09T10:19:03.302Z,56.76
2022-09-09T10:22:15.272Z,56.80
2022-09-09T10:25:51.556Z,48.47
2022-09-09T10:28:51.046Z,45.70
2022-09-09T10:31:33.011Z,50.36
2022-09-09T10:34:14.451Z,49.59
2022-09-09T10:36:50.109Z,48.82
2022-09-09T10:39:33.604Z,48.64
2022-09-09T10:42:09.279Z,49.85
2022-09-09T10:45:03.188Z,49.68
2022-09-09T10:47:59.270Z,52.52
2022-09-09T10:51:00.509Z,54.95
2022-09-09T10:53:47.740Z,56.28
2022-09-09T10:56:39.227Z,58.25
2022-09-09T10:59:13.362Z,58.09
2022-09-09T11:01:54.989Z,59.24
2022-09-09T11:04:26.237Z,60.53
2022-09-09T11:07:08.466Z,60.73
2022-09-09T11:09:45.274Z,61.98
2022-09-09T11:12:23.202Z,60.71
2022-09-09T11:19:23.843Z,73.04
2022-09-09T11:22:19.904Z,75.63
2022-09-09T11:42:22.910Z,97.16
2022-09-09T11:49:19.137Z,100.00
2022-09-09T12:39:18.104Z,74.71
2022-09-09T12:42:32.799Z,76.52
2022-09-09T15:16:50.341Z,89.80
2022-09-09T15:19:18.904Z,90.40
2022-09-09T15:21:46.687Z,91.36
2022-09-09T15:24:14.779Z,88.42
2022-09-09T15:26:42.735Z,87.08
2022-09-09T15:29:11.356Z,85.71
2022-09-09T15:31:39.329Z,82.70
2022-09-09T15:34:09.434Z,79.60
2022-09-09T15:36:38.793Z,77.24
2022-09-09T15:39:10.753Z,76.55
2022-09-09T15:41:38.831Z,75.97
2022-09-09T15:44:06.679Z,75.17
2022-09-09T15:46:41.840Z,74.62
2022-09-09T15:49:27.553Z,74.54
2022-09-09T15:52:12.679Z,76.96
2022-09-09T15:54:41.123Z,77.98
2022-09-09T15:57:16.668Z,79.70
2022-09-09T15:59:46.459Z,81.39
2022-09-09T16:02:14.361Z,82.22
2022-09-09T16:04:45.911Z,85.20
2022-09-09T16:07:14.490Z,86.65
2022-09-09T16:09:44.337Z,88.21
2022-09-09T16:12:13.872Z,89.19
2022-09-09T16:14:42.292Z,90.02
2022-09-09T16:17:24.208Z,90.18
2022-09-09T16:19:58.810Z,90.06
2022-09-09T16:22:54.369Z,90.38
2022-09-09T16:25:23.006Z,90.53
2022-09-09T16:27:50.931Z,91.26
2022-09-09T16:30:21.235Z,91.29
2022-09-09T16:32:50.439Z,91.55
2022-09-09T16:38:05.182Z,92.86
2022-09-09T16:40:35.981Z,92.87
2022-09-09T16:43:03.856Z,93.47
2022-09-09T16:45:37.222Z,92.89
2022-09-09T16:48:05.278Z,91.50
2022-09-09T16:50:36.623Z,91.92
2022-09-09T16:53:09.821Z,92.20
2022-09-09T16:55:53.062Z,92.01
2022-09-09T16:58:24.285Z,92.62
2022-09-09T17:01:12.676Z,92.66
2022-09-09T17:03:50.858Z,91.06
2022-09-09T17:06:22.452Z,91.77
2022-09-09T17:09:14.102Z,91.82
2022-09-09T17:11:42.439Z,94.73
2022-09-09T17:14:16.501Z,96.90
2022-09-09T17:16:50.992Z,100.00
2022-09-09T17:19:19.991Z,85.47
2022-09-09T17:22:14.763Z,92.57
2022-09-09T17:24:39.860Z,93.12
2022-09-09T17:27:08.020Z,97.40
2022-09-09T17:29:37.072Z,100.00
2022-09-09T17:32:09.936Z,100.00
2022-09-09T17:34:38.894Z,100.00
2022-09-09T17:37:11.691Z,100.00
2022-09-09T17:39:44.835Z,100.00
2022-09-09T17:42:12.732Z,100.00
2022-09-09T17:44:41.117Z,100.00
2022-09-09T17:47:11.048Z,100.00
2022-09-09T17:49:55.791Z,100.00
2022-09-09T17:52:32.066Z,100.00
2022-09-09T17:55:00.878Z,100.00
2022-09-09T18:01:04.257Z,100.00
2022-09-09T18:03:38.832Z,100.00
2022-09-09T18:06:09.182Z,100.00
2022-09-09T18:08:38.409Z,100.00
2022-09-09T18:11:06.801Z,100.00
2022-09-09T18:13:35.239Z,100.00
2022-09-09T18:16:05.222Z,100.00
2022-09-09T18:18:33.052Z,100.00
2022-09-09T18:21:01.812Z,100.00
2022-09-09T18:23:31.474Z,100.00
2022-09-09T18:26:07.883Z,100.00
2022-09-09T18:28:36.222Z,100.00
2022-09-09T18:31:07.230Z,100.00
2022-09-09T18:33:37.684Z,100.00
2022-09-09T18:36:08.120Z,100.00
2022-09-09T18:38:59.851Z,100.00
2022-09-09T18:41:39.430Z,100.00
2022-09-09T18:44:15.733Z,100.00
2022-09-09T18:46:45.128Z,100.00
2022-09-09T18:49:18.266Z,100.00
2022-09-09T18:51:46.948Z,100.00
2022-09-09T18:54:17.448Z,100.00
2022-09-09T18:56:48.667Z,100.00
2022-09-09T18:59:33.709Z,100.00
2022-09-09T19:02:02.042Z,100.00
2022-09-09T19:04:29.939Z,100.00
2022-09-09T19:06:58.777Z,100.00
2022-09-09T19:09:29.523Z,100.00
2022-09-09T20:08:48.368Z,100.00
2022-09-09T21:22:46.064Z,100.00
2022-09-09T21:25:53.194Z,100.00
2022-09-09T21:28:36.840Z,100.00
2022-09-09T21:31:15.370Z,100.00
2022-09-09T21:33:47.715Z,100.00
2022-09-09T21:36:24.377Z,100.00
2022-09-09T21:39:06.455Z,100.00
2022-09-09T21:41:37.541Z,100.00
2022-09-09T21:44:05.719Z,100.00
2022-09-09T21:47:20.888Z,100.00
2022-09-09T21:49:48.930Z,100.00
2022-09-09T21:52:20.365Z,100.00
2022-09-09T21:54:49.693Z,100.00
2022-09-09T21:57:21.736Z,100.00
2022-09-09T22:00:02.911Z,100.00
2022-09-09T22:02:34.471Z,100.00
2022-09-09T22:08:44.975Z,100.00
2022-09-09T22:12:24.143Z,100.00
2022-09-09T22:14:54.335Z,100.00
2022-09-09T22:17:24.433Z,100.00
2022-09-09T22:19:54.305Z,100.00
2022-09-09T22:22:22.937Z,100.00
2022-09-09T22:24:57.187Z,100.00
2022-09-09T22:27:28.128Z,100.00
2022-09-09T22:30:04.150Z,100.00
2022-09-09T22:32:41.781Z,100.00
2022-09-09T22:35:13.534Z,100.00
2022-09-09T22:37:50.957Z,100.00
2022-09-09T22:40:23.463Z,100.00
2022-09-09T22:42:52.908Z,100.00
2022-09-09T22:45:30.398Z,100.00
2022-09-09T22:48:06.668Z,100.00
2022-09-09T22:50:42.502Z,100.00
2022-09-09T22:56:15.337Z,100.00
2022-09-09T22:58:43.338Z,100.00
2022-09-09T23:01:19.977Z,100.00
2022-09-09T23:04:02.982Z,100.00
2022-09-09T23:06:34.695Z,100.00
2022-09-09T23:09:06.765Z,100.00
2022-09-09T23:12:19.222Z,100.00
2022-09-09T23:15:10.149Z,100.00
2022-09-09T23:18:12.394Z,100.00
2022-09-09T23:20:40.535Z,100.00
2022-09-09T23:23:13.752Z,100.00
2022-09-09T23:26:33.754Z,100.00
2022-09-09T23:29:42.645Z,100.00
2022-09-09T23:32:52.763Z,100.00
2022-09-09T23:36:48.330Z,100.00
2022-09-09T23:40:08.594Z,100.00
2022-09-09T23:43:32.646Z,100.00
2022-09-09T23:46:55.513Z,100.00
2022-09-09T23:50:45.824Z,100.00
2022-09-09T23:57:35.659Z,100.00
